createdAt,value
2018-09-09T00:00:36.422Z,14.51
2018-09-09T00:01:36.869Z,14.54
2018-09-09T00:02:40.384Z,14.53
2018-09-09T00:03:36.590Z,14.6
2018-09-09T00:04:36.339Z,14.55
2018-09-09T00:05:36.628Z,14.58
2018-09-09T00:06:36.848Z,14.58
2018-09-09T00:07:36.382Z,14.5
2018-09-09T00:08:36.590Z,14.44
2018-09-09T00:09:36.337Z,14.5
2018-09-09T00:10:36.674Z,14.45
2018-09-09T00:11:36.571Z,14.45
2018-09-09T00:12:36.839Z,14.41
2018-09-09T00:13:36.589Z,14.47
2018-09-09T00:14:36.578Z,14.36
2018-09-09T00:15:36.900Z,14.37
2018-09-09T00:16:36.571Z,14.37
2018-09-09T00:17:36.577Z,14.29
2018-09-09T00:18:36.829Z,14.25
2018-09-09T00:19:36.579Z,14.29
2018-09-09T00:20:36.605Z,14.26
2018-09-09T00:21:36.572Z,14.3
2018-09-09T00:22:36.866Z,14.26
2018-09-09T00:23:36.818Z,14.23
2018-09-09T00:24:36.298Z,14.26
2018-09-09T00:25:36.880Z,14.32
2018-09-09T00:26:36.565Z,14.26
2018-09-09T00:27:36.555Z,14.35
2018-09-09T00:28:36.543Z,14.2
2018-09-09T00:29:36.547Z,14.25
2018-09-09T00:30:36.544Z,14.2
2018-09-09T00:31:36.285Z,14.2
2018-09-09T00:32:36.784Z,14.2
2018-09-09T00:33:37.076Z,14.14
2018-09-09T00:34:36.779Z,14.2
2018-09-09T00:35:36.637Z,14.2
2018-09-09T00:36:36.533Z,14.2
2018-09-09T00:37:36.527Z,14.23
2018-09-09T00:38:36.777Z,14.36
2018-09-09T00:39:36.308Z,14.26
2018-09-09T00:40:36.784Z,14.25
2018-09-09T00:41:36.265Z,14.33
2018-09-09T00:42:36.266Z,14.3
2018-09-09T00:43:36.777Z,14.43
2018-09-09T00:44:36.515Z,14.37
2018-09-09T00:45:36.766Z,14.51
2018-09-09T00:46:36.759Z,14.4
2018-09-09T00:47:36.537Z,14.51
2018-09-09T00:48:36.530Z,14.55
2018-09-09T00:49:36.753Z,14.6
2018-09-09T00:50:36.530Z,14.53
2018-09-09T00:51:36.748Z,14.66
2018-09-09T00:52:36.266Z,14.69
2018-09-09T00:53:36.497Z,14.69
2018-09-09T00:54:36.482Z,14.65
2018-09-09T00:55:36.771Z,14.66
2018-09-09T00:56:36.508Z,14.7
2018-09-09T00:57:36.497Z,14.72
2018-09-09T00:58:36.744Z,14.82
2018-09-09T00:59:36.737Z,14.84
2018-09-09T01:00:36.784Z,14.78
2018-09-09T01:01:36.225Z,14.73
2018-09-09T01:02:36.482Z,14.62
2018-09-09T01:03:37.772Z,14.68
2018-09-09T01:04:36.458Z,14.55
2018-09-09T01:05:36.571Z,14.62
2018-09-09T01:06:36.714Z,14.55
2018-09-09T01:07:36.480Z,14.55
2018-09-09T01:08:36.727Z,14.58
2018-09-09T01:09:36.208Z,14.69
2018-09-09T01:10:36.455Z,14.66
2018-09-09T01:11:36.704Z,14.62
2018-09-09T01:12:36.465Z,14.59
2018-09-09T01:13:36.493Z,14.6
2018-09-09T01:14:36.694Z,14.59
2018-09-09T01:15:36.729Z,14.66
2018-09-09T01:16:36.442Z,14.54
2018-09-09T01:17:36.697Z,14.6
2018-09-09T01:18:36.189Z,14.63
2018-09-09T01:19:36.696Z,14.58
2018-09-09T01:20:36.830Z,14.44
2018-09-09T01:21:36.688Z,14.47
2018-09-09T01:22:36.445Z,14.36
2018-09-09T01:23:36.435Z,14.37
2018-09-09T01:24:36.432Z,14.36
2018-09-09T01:25:36.750Z,14.37
2018-09-09T01:26:36.669Z,14.33
2018-09-09T01:27:36.670Z,14.36
2018-09-09T01:28:36.177Z,14.33
2018-09-09T01:29:36.410Z,14.28
2018-09-09T01:30:36.679Z,14.23
2018-09-09T01:31:36.666Z,14.22
2018-09-09T01:32:36.661Z,14.2
2018-09-09T01:33:36.430Z,14.11
2018-09-09T01:34:36.148Z,14.15
2018-09-09T01:35:36.428Z,14.1
2018-09-09T01:36:36.398Z,14.1
2018-09-09T01:37:36.655Z,13.99
2018-09-09T01:38:36.652Z,13.93
2018-09-09T01:39:36.391Z,13.95
2018-09-09T01:40:36.492Z,13.92
2018-09-09T01:41:36.392Z,13.81
2018-09-09T01:42:36.138Z,13.92
2018-09-09T01:43:36.383Z,13.89
2018-09-09T01:44:36.383Z,13.9
2018-09-09T01:45:36.411Z,13.92
2018-09-09T01:46:36.381Z,13.93
2018-09-09T01:47:36.377Z,13.93
2018-09-09T01:48:36.380Z,13.85
2018-09-09T01:49:36.381Z,13.81
2018-09-09T01:50:36.461Z,13.81
2018-09-09T01:51:36.359Z,13.79
2018-09-09T01:52:36.378Z,13.92
2018-09-09T01:53:36.098Z,13.97
2018-09-09T01:54:36.357Z,13.77
2018-09-09T01:55:36.644Z,13.92
2018-09-09T01:56:36.103Z,13.83
2018-09-09T01:57:36.616Z,13.93
2018-09-09T01:58:36.600Z,13.95
2018-09-09T01:59:36.348Z,14
2018-09-09T02:00:36.338Z,14.08
2018-09-09T02:01:36.101Z,14.11
2018-09-09T02:02:36.086Z,14.11
2018-09-09T02:03:36.328Z,14.22
2018-09-09T02:04:36.322Z,14.15
2018-09-09T02:05:36.685Z,14.11
2018-09-09T02:06:36.324Z,14.05
2018-09-09T02:07:36.066Z,14.1
2018-09-09T02:08:36.063Z,14.1
2018-09-09T02:09:36.053Z,14.07
2018-09-09T02:10:36.399Z,13.99
2018-09-09T02:11:36.327Z,14.1
2018-09-09T02:12:36.306Z,13.96
2018-09-09T02:13:36.604Z,14
2018-09-09T02:14:36.336Z,14.07
2018-09-09T02:15:36.395Z,14.04
2018-09-09T02:16:36.568Z,14
2018-09-09T02:17:36.574Z,14.04
2018-09-09T02:18:36.297Z,14.11
2018-09-09T02:19:36.581Z,14.03
2018-09-09T02:20:36.310Z,14.11
2018-09-09T02:21:36.566Z,14.1
2018-09-09T02:22:36.030Z,14.2
2018-09-09T02:23:36.297Z,14.18
2018-09-09T02:24:36.283Z,14.17
2018-09-09T02:25:36.597Z,14.23
2018-09-09T02:26:36.337Z,14.2
2018-09-09T02:27:36.668Z,14.32
2018-09-09T02:28:36.564Z,14.36
2018-09-09T02:29:36.531Z,14.23
2018-09-09T02:30:36.283Z,14.17
2018-09-09T02:31:36.550Z,14.11
2018-09-09T02:32:36.545Z,14.1
2018-09-09T02:33:36.273Z,14.03
2018-09-09T02:34:37.047Z,14
2018-09-09T02:35:36.016Z,14.07
2018-09-09T02:36:36.259Z,14.05
2018-09-09T02:37:36.522Z,14.08
2018-09-09T02:38:36.276Z,14
2018-09-09T02:39:36.244Z,14.05
2018-09-09T02:40:36.339Z,13.99
2018-09-09T02:41:36.512Z,13.99
2018-09-09T02:42:36.520Z,13.96
2018-09-09T02:43:36.290Z,13.93
2018-09-09T02:44:36.247Z,14
2018-09-09T02:45:36.590Z,14.08
2018-09-09T02:46:36.508Z,13.99
2018-09-09T02:47:36.487Z,13.95
2018-09-09T02:48:36.232Z,14
2018-09-09T02:49:36.244Z,13.99
2018-09-09T02:50:36.571Z,13.92
2018-09-09T02:51:36.232Z,13.93
2018-09-09T02:52:35.961Z,13.83
2018-09-09T02:53:36.203Z,13.87
2018-09-09T02:54:36.199Z,13.86
2018-09-09T02:55:36.473Z,13.83
2018-09-09T02:56:36.478Z,13.86
2018-09-09T02:57:36.470Z,13.89
2018-09-09T02:58:36.208Z,13.87
2018-09-09T02:59:36.224Z,13.89
2018-09-09T03:00:36.480Z,13.9
2018-09-09T03:01:36.470Z,13.86
2018-09-09T03:02:36.235Z,13.85
2018-09-09T03:03:36.446Z,13.78
2018-09-09T03:04:37.506Z,13.71
2018-09-09T03:05:36.241Z,13.74
2018-09-09T03:06:36.437Z,13.59
2018-09-09T03:07:36.181Z,13.54
2018-09-09T03:08:36.206Z,13.53
2018-09-09T03:09:35.948Z,13.52
2018-09-09T03:10:35.911Z,13.44
2018-09-09T03:11:35.920Z,13.39
2018-09-09T03:12:36.423Z,13.44
2018-09-09T03:13:35.911Z,13.44
2018-09-09T03:14:36.421Z,13.44
2018-09-09T03:15:36.190Z,13.39
2018-09-09T03:16:36.419Z,13.38
2018-09-09T03:17:36.419Z,13.35
2018-09-09T03:18:36.138Z,13.33
2018-09-09T03:19:36.453Z,13.35
2018-09-09T03:20:36.128Z,13.28
2018-09-09T03:21:36.124Z,13.2
2018-09-09T03:22:36.122Z,13.23
2018-09-09T03:23:36.380Z,13.25
2018-09-09T03:24:35.852Z,13.16
2018-09-09T03:25:36.460Z,13.19
2018-09-09T03:26:36.107Z,13.12
2018-09-09T03:27:36.097Z,13.16
2018-09-09T03:28:36.200Z,13.11
2018-09-09T03:29:36.367Z,13.13
2018-09-09T03:30:36.377Z,13.03
2018-09-09T03:31:35.835Z,13.08
2018-09-09T03:32:36.344Z,13.03
2018-09-09T03:33:35.825Z,13.13
2018-09-09T03:34:35.818Z,13.13
2018-09-09T03:35:36.337Z,13.11
2018-09-09T03:36:36.085Z,13.01
2018-09-09T03:37:36.075Z,13.01
2018-09-09T03:38:36.319Z,13.09
2018-09-09T03:39:36.059Z,13.04
2018-09-09T03:40:36.160Z,13
2018-09-09T03:41:36.374Z,13.01
2018-09-09T03:42:36.316Z,13
2018-09-09T03:43:36.079Z,13.01
2018-09-09T03:44:36.291Z,12.98
2018-09-09T03:45:36.189Z,12.91
2018-09-09T03:46:36.293Z,12.94
2018-09-09T03:47:36.053Z,12.83
2018-09-09T03:48:36.281Z,12.95
2018-09-09T03:49:36.309Z,12.94
2018-09-09T03:50:36.342Z,12.93
2018-09-09T03:51:36.034Z,12.87
2018-09-09T03:52:36.267Z,12.86
2018-09-09T03:53:36.022Z,12.87
2018-09-09T03:54:36.268Z,12.82
2018-09-09T03:55:36.035Z,12.94
2018-09-09T03:56:36.065Z,12.93
2018-09-09T03:57:36.020Z,12.87
2018-09-09T03:58:36.255Z,12.93
2018-09-09T03:59:36.025Z,12.82
2018-09-09T04:00:36.268Z,12.9
2018-09-09T04:01:36.008Z,12.83
2018-09-09T04:02:36.260Z,12.8
2018-09-09T04:03:35.989Z,12.8
2018-09-09T04:04:35.972Z,12.79
2018-09-09T04:05:36.300Z,12.8
2018-09-09T04:06:36.242Z,12.78
2018-09-09T04:07:36.210Z,12.73
2018-09-09T04:08:36.205Z,12.65
2018-09-09T04:09:35.952Z,12.72
2018-09-09T04:10:36.222Z,12.65
2018-09-09T04:11:36.218Z,12.75
2018-09-09T04:12:35.946Z,12.68
2018-09-09T04:13:35.951Z,12.72
2018-09-09T04:14:35.952Z,12.65
2018-09-09T04:15:36.232Z,12.61
2018-09-09T04:16:35.685Z,12.57
2018-09-09T04:17:36.225Z,12.61
2018-09-09T04:18:35.931Z,12.61
2018-09-09T04:19:35.930Z,12.62
2018-09-09T04:20:35.729Z,12.57
2018-09-09T04:21:35.905Z,12.55
2018-09-09T04:22:35.904Z,12.53
2018-09-09T04:23:35.889Z,12.55
2018-09-09T04:24:35.635Z,12.58
2018-09-09T04:25:36.144Z,12.55
2018-09-09T04:26:35.874Z,12.61
2018-09-09T04:27:36.132Z,12.6
2018-09-09T04:28:36.143Z,12.58
2018-09-09T04:29:35.871Z,12.61
2018-09-09T04:30:35.896Z,12.64
2018-09-09T04:31:36.104Z,12.6
2018-09-09T04:32:36.104Z,12.68
2018-09-09T04:33:35.595Z,12.78
2018-09-09T04:34:35.843Z,12.75
2018-09-09T04:35:36.892Z,12.73
2018-09-09T04:36:36.100Z,12.68
2018-09-09T04:37:35.576Z,12.73
2018-09-09T04:38:35.836Z,12.67
2018-09-09T04:39:35.822Z,12.65
2018-09-09T04:40:36.187Z,12.65
2018-09-09T04:41:36.068Z,12.57
2018-09-09T04:42:35.804Z,12.62
2018-09-09T04:43:35.805Z,12.62
2018-09-09T04:44:36.071Z,12.65
2018-09-09T04:45:35.855Z,12.61
2018-09-09T04:46:36.198Z,12.6
2018-09-09T04:47:36.062Z,12.54
2018-09-09T04:48:36.042Z,12.58
2018-09-09T04:49:35.783Z,12.49
2018-09-09T04:50:36.059Z,12.46
2018-09-09T04:51:35.794Z,12.53
2018-09-09T04:52:35.879Z,12.5
2018-09-09T04:53:36.050Z,12.5
2018-09-09T04:54:35.758Z,12.49
2018-09-09T04:55:35.792Z,12.5
2018-09-09T04:56:36.066Z,12.55
2018-09-09T04:57:36.021Z,12.49
2018-09-09T04:58:36.017Z,12.5
2018-09-09T04:59:35.737Z,12.5
2018-09-09T05:00:36.014Z,12.49
2018-09-09T05:01:35.740Z,12.54
2018-09-09T05:02:35.999Z,12.57
2018-09-09T05:03:35.990Z,12.61
2018-09-09T05:04:35.987Z,12.55
2018-09-09T05:05:36.234Z,12.54
2018-09-09T05:06:35.715Z,12.61
2018-09-09T05:07:35.707Z,12.65
2018-09-09T05:08:35.706Z,12.72
2018-09-09T05:09:36.003Z,12.68
2018-09-09T05:10:35.707Z,12.7
2018-09-09T05:11:35.702Z,12.73
2018-09-09T05:12:35.959Z,12.76
2018-09-09T05:13:35.945Z,12.73
2018-09-09T05:14:35.682Z,12.73
2018-09-09T05:15:35.429Z,12.79
2018-09-09T05:16:35.924Z,12.76
2018-09-09T05:17:35.920Z,12.82
2018-09-09T05:18:35.682Z,12.87
2018-09-09T05:19:35.676Z,12.93
2018-09-09T05:20:35.914Z,12.91
2018-09-09T05:21:35.656Z,12.98
2018-09-09T05:22:35.667Z,13
2018-09-09T05:23:35.644Z,13.13
2018-09-09T05:24:35.905Z,13.22
2018-09-09T05:25:35.642Z,13.2
2018-09-09T05:26:35.627Z,13.16
2018-09-09T05:27:35.644Z,13.25
2018-09-09T05:28:35.881Z,13.3
2018-09-09T05:29:35.879Z,13.38
2018-09-09T05:30:35.943Z,13.46
2018-09-09T05:31:35.676Z,13.44
2018-09-09T05:32:35.922Z,13.42
2018-09-09T05:33:35.615Z,13.5
2018-09-09T05:34:35.360Z,13.53
2018-09-09T05:35:35.655Z,13.6
2018-09-09T05:36:35.554Z,13.71
2018-09-09T05:37:35.868Z,13.81
2018-09-09T05:38:35.893Z,13.87
2018-09-09T05:39:35.853Z,13.83
2018-09-09T05:40:35.926Z,13.85
2018-09-09T05:41:35.601Z,13.79
2018-09-09T05:42:35.848Z,13.78
2018-09-09T05:43:35.594Z,13.72
2018-09-09T05:44:36.055Z,13.65
2018-09-09T05:45:35.836Z,13.75
2018-09-09T05:46:35.338Z,13.74
2018-09-09T05:47:35.839Z,13.75
2018-09-09T05:48:35.840Z,13.81
2018-09-09T05:49:35.830Z,13.81
2018-09-09T05:50:35.822Z,13.75
2018-09-09T05:51:35.323Z,13.81
2018-09-09T05:52:35.821Z,13.81
2018-09-09T05:53:35.824Z,13.71
2018-09-09T05:54:35.826Z,13.71
2018-09-09T05:55:35.811Z,13.68
2018-09-09T05:56:35.811Z,13.75
2018-09-09T05:57:35.830Z,13.77
2018-09-09T05:58:35.804Z,13.83
2018-09-09T05:59:35.799Z,13.87
2018-09-09T06:00:35.796Z,13.99
2018-09-09T06:01:35.800Z,13.89
2018-09-09T06:02:35.544Z,13.85
2018-09-09T06:03:35.803Z,13.93
2018-09-09T06:04:35.530Z,13.93
2018-09-09T06:05:35.829Z,13.93
2018-09-09T06:06:39.578Z,13.95
2018-09-09T06:07:35.777Z,13.89
2018-09-09T06:08:35.518Z,13.92
2018-09-09T06:09:35.778Z,13.92
2018-09-09T06:10:35.765Z,14
2018-09-09T06:11:35.765Z,13.96
2018-09-09T06:12:35.534Z,14.04
2018-09-09T06:13:35.499Z,14.08
2018-09-09T06:14:35.496Z,14.11
2018-09-09T06:15:35.310Z,14.12
2018-09-09T06:16:35.493Z,14.11
2018-09-09T06:17:35.490Z,14.07
2018-09-09T06:18:35.488Z,14.15
2018-09-09T06:19:35.224Z,14.29
2018-09-09T06:20:35.502Z,14.35
2018-09-09T06:21:35.739Z,14.32
2018-09-09T06:22:35.483Z,14.5
2018-09-09T06:23:35.477Z,14.59
2018-09-09T06:24:35.488Z,14.58
2018-09-09T06:25:35.736Z,14.63
2018-09-09T06:26:35.211Z,14.62
2018-09-09T06:27:35.474Z,14.73
2018-09-09T06:28:35.734Z,14.96
2018-09-09T06:29:35.478Z,15.06
2018-09-09T06:30:35.512Z,15.28
2018-09-09T06:31:35.467Z,15.49
2018-09-09T06:32:35.467Z,15.83
2018-09-09T06:33:35.836Z,15.95
2018-09-09T06:34:35.731Z,16.01
2018-09-09T06:35:35.559Z,15.95
2018-09-09T06:36:35.453Z,15.98
2018-09-09T06:37:35.732Z,16.04
2018-09-09T06:38:35.458Z,16.1
2018-09-09T06:39:35.218Z,16.16
2018-09-09T06:40:35.512Z,16.5
2018-09-09T06:41:35.701Z,16.9
2018-09-09T06:42:35.202Z,17.51
2018-09-09T06:43:35.453Z,17.86
2018-09-09T06:44:35.205Z,18.25
2018-09-09T06:45:35.193Z,18.41
2018-09-09T06:46:35.453Z,18.63
2018-09-09T06:47:35.448Z,18.6
2018-09-09T06:48:35.710Z,18.47
2018-09-09T06:49:35.710Z,18.58
2018-09-09T06:50:35.716Z,18.73
2018-09-09T06:51:35.459Z,18.99
2018-09-09T06:52:35.720Z,19.15
2018-09-09T06:53:35.453Z,19.27
2018-09-09T06:54:35.456Z,19.47
2018-09-09T06:55:35.649Z,19.49
2018-09-09T06:56:35.467Z,19.48
2018-09-09T06:57:35.473Z,19.4
2018-09-09T06:58:35.460Z,19.27
2018-09-09T06:59:35.209Z,19.15
2018-09-09T07:00:35.555Z,18.95
2018-09-09T07:01:35.476Z,18.68
2018-09-09T07:02:35.468Z,18.47
2018-09-09T07:03:35.735Z,18.28
2018-09-09T07:04:35.728Z,18.2
2018-09-09T07:05:35.774Z,18.13
2018-09-09T07:06:35.490Z,18.1
2018-09-09T07:07:35.748Z,17.97
2018-09-09T07:08:35.484Z,17.79
2018-09-09T07:09:35.477Z,17.71
2018-09-09T07:10:35.485Z,17.63
2018-09-09T07:11:36.567Z,17.68
2018-09-09T07:12:35.748Z,17.6
2018-09-09T07:13:35.488Z,17.56
2018-09-09T07:14:35.234Z,17.63
2018-09-09T07:15:35.757Z,17.67
2018-09-09T07:16:35.769Z,17.78
2018-09-09T07:17:35.498Z,18.01
2018-09-09T07:18:35.828Z,18.35
2018-09-09T07:19:35.784Z,18.71
2018-09-09T07:20:35.239Z,19.02
2018-09-09T07:21:35.505Z,19.27
2018-09-09T07:22:35.875Z,19.7
2018-09-09T07:23:35.755Z,20
2018-09-09T07:24:35.251Z,20.29
2018-09-09T07:25:35.768Z,20.69
2018-09-09T07:26:35.523Z,20.92
2018-09-09T07:27:35.528Z,21.21
2018-09-09T07:28:35.365Z,21.2
2018-09-09T07:29:35.531Z,21.11
2018-09-09T07:30:35.604Z,21.17
2018-09-09T07:31:35.532Z,21.25
2018-09-09T07:32:35.785Z,21.22
2018-09-09T07:33:35.802Z,21.54
2018-09-09T07:34:35.541Z,21.61
2018-09-09T07:35:35.799Z,21.8
2018-09-09T07:36:35.282Z,22.04
2018-09-09T07:37:35.816Z,22.25
2018-09-09T07:38:35.311Z,22.59
2018-09-09T07:39:35.819Z,22.73
2018-09-09T07:40:35.328Z,22.85
2018-09-09T07:41:35.569Z,22.85
2018-09-09T07:42:35.579Z,22.91
2018-09-09T07:43:35.568Z,22.87
2018-09-09T07:44:35.580Z,22.85
2018-09-09T07:45:35.644Z,22.7
2018-09-09T07:46:35.675Z,22.47
2018-09-09T07:47:35.842Z,22.14
2018-09-09T07:48:35.604Z,21.75
2018-09-09T07:49:35.340Z,21.52
2018-09-09T07:50:36.028Z,21.39
2018-09-09T07:51:35.347Z,21.15
2018-09-09T07:52:35.357Z,20.7
2018-09-09T07:53:35.861Z,20.62
2018-09-09T07:54:35.878Z,20.39
2018-09-09T07:55:35.563Z,20.32
2018-09-09T07:56:35.876Z,20.16
2018-09-09T07:57:35.889Z,20.03
2018-09-09T07:58:35.928Z,20
2018-09-09T07:59:35.916Z,20.07
2018-09-09T08:00:35.841Z,20.28
2018-09-09T08:01:35.887Z,20.66
2018-09-09T08:02:35.632Z,21.11
2018-09-09T08:03:35.653Z,21.51
2018-09-09T08:04:35.389Z,21.89
2018-09-09T08:05:35.437Z,22.33
2018-09-09T08:06:35.650Z,22.62
2018-09-09T08:07:36.057Z,22.85
2018-09-09T08:08:35.913Z,23.28
2018-09-09T08:09:35.657Z,23.58
2018-09-09T08:10:35.954Z,23.77
2018-09-09T08:11:35.931Z,23.73
2018-09-09T08:12:35.664Z,23.69
2018-09-09T08:13:35.948Z,23.77
2018-09-09T08:14:35.685Z,23.91
2018-09-09T08:15:35.420Z,23.92
2018-09-09T08:16:35.979Z,23.71
2018-09-09T08:17:35.945Z,23.55
2018-09-09T08:18:35.895Z,23.61
2018-09-09T08:19:35.962Z,23.66
2018-09-09T08:20:35.709Z,23.87
2018-09-09T08:21:35.705Z,23.91
2018-09-09T08:22:35.998Z,23.78
2018-09-09T08:23:35.876Z,23.69
2018-09-09T08:24:35.725Z,23.47
2018-09-09T08:25:35.725Z,23.18
2018-09-09T08:26:35.724Z,22.75
2018-09-09T08:27:35.735Z,22.47
2018-09-09T08:28:35.730Z,22.13
2018-09-09T08:29:35.734Z,21.95
2018-09-09T08:30:36.052Z,21.67
2018-09-09T08:31:35.805Z,21.48
2018-09-09T08:32:36.005Z,21.39
2018-09-09T08:33:36.030Z,21.22
2018-09-09T08:34:35.511Z,21.14
2018-09-09T08:35:36.216Z,21.12
2018-09-09T08:36:35.779Z,21.02
2018-09-09T08:37:36.873Z,20.96
2018-09-09T08:38:35.773Z,21.02
2018-09-09T08:39:35.776Z,20.93
2018-09-09T08:40:35.537Z,20.88
2018-09-09T08:41:35.547Z,20.88
2018-09-09T08:42:35.786Z,20.85
2018-09-09T08:43:35.801Z,20.72
2018-09-09T08:44:35.803Z,20.72
2018-09-09T08:45:36.520Z,20.65
2018-09-09T08:46:35.803Z,20.69
2018-09-09T08:47:35.603Z,20.6
2018-09-09T08:48:36.081Z,20.81
2018-09-09T08:49:36.103Z,20.9
2018-09-09T08:50:35.824Z,21
2018-09-09T08:51:35.825Z,21.15
2018-09-09T08:52:36.102Z,21.27
2018-09-09T08:53:36.079Z,21.2
2018-09-09T08:54:36.093Z,21.24
2018-09-09T08:55:35.869Z,21.33
2018-09-09T08:56:35.824Z,21.37
2018-09-09T08:57:35.931Z,21.37
2018-09-09T08:58:36.092Z,21.5
2018-09-09T08:59:35.841Z,21.67
2018-09-09T09:00:35.842Z,21.64
2018-09-09T09:01:35.853Z,21.73
2018-09-09T09:02:35.615Z,21.7
2018-09-09T09:03:36.102Z,21.69
2018-09-09T09:04:36.116Z,21.72
2018-09-09T09:05:36.155Z,21.76
2018-09-09T09:06:36.126Z,21.61
2018-09-09T09:07:35.952Z,21.64
2018-09-09T09:08:35.614Z,21.61
2018-09-09T09:09:35.610Z,21.64
2018-09-09T09:10:36.240Z,21.83
2018-09-09T09:11:35.872Z,21.99
2018-09-09T09:12:36.222Z,21.93
2018-09-09T09:13:36.146Z,21.8
2018-09-09T09:14:36.208Z,21.79
2018-09-09T09:15:35.626Z,21.85
2018-09-09T09:16:35.879Z,21.89
2018-09-09T09:17:35.879Z,22
2018-09-09T09:18:36.350Z,22.07
2018-09-09T09:19:36.164Z,21.91
2018-09-09T09:20:36.231Z,21.79
2018-09-09T09:21:35.644Z,21.73
2018-09-09T09:22:35.639Z,21.79
2018-09-09T09:23:36.275Z,21.73
2018-09-09T09:24:35.909Z,21.82
2018-09-09T09:25:36.187Z,22
2018-09-09T09:26:35.932Z,22.06
2018-09-09T09:27:36.188Z,22.14
2018-09-09T09:28:35.924Z,22.28
2018-09-09T09:29:35.666Z,22.44
2018-09-09T09:30:36.285Z,22.59
2018-09-09T09:31:35.948Z,22.68
2018-09-09T09:32:36.230Z,22.75
2018-09-09T09:33:36.188Z,22.88
2018-09-09T09:34:35.681Z,23.09
2018-09-09T09:35:36.334Z,23.28
2018-09-09T09:36:36.213Z,23.34
2018-09-09T09:37:36.223Z,23.43
2018-09-09T09:38:35.737Z,23.39
2018-09-09T09:39:36.218Z,23.47
2018-09-09T09:40:35.990Z,23.65
2018-09-09T09:41:36.208Z,23.81
2018-09-09T09:42:35.964Z,23.76
2018-09-09T09:43:35.964Z,23.8
2018-09-09T09:44:36.277Z,23.74
2018-09-09T09:45:36.346Z,23.77
2018-09-09T09:46:35.718Z,23.8
2018-09-09T09:47:35.982Z,23.91
2018-09-09T09:48:36.256Z,23.91
2018-09-09T09:49:35.988Z,23.88
2018-09-09T09:50:36.277Z,23.93
2018-09-09T09:51:35.992Z,23.98
2018-09-09T09:52:35.739Z,24.03
2018-09-09T09:53:35.792Z,23.96
2018-09-09T09:54:36.264Z,23.98
2018-09-09T09:55:36.258Z,23.93
2018-09-09T09:56:36.017Z,23.92
2018-09-09T09:57:36.005Z,23.92
2018-09-09T09:58:36.570Z,24.02
2018-09-09T09:59:36.019Z,24.13
2018-09-09T10:00:36.268Z,24.3
2018-09-09T10:01:36.317Z,24.28
2018-09-09T10:02:36.344Z,24.42
2018-09-09T10:03:36.158Z,24.54
2018-09-09T10:04:36.054Z,24.74
2018-09-09T10:05:36.321Z,24.85
2018-09-09T10:06:36.306Z,24.92
2018-09-09T10:07:36.052Z,24.93
2018-09-09T10:08:36.891Z,25.01
2018-09-09T10:09:36.318Z,25.01
2018-09-09T10:10:36.063Z,25.04
2018-09-09T10:11:36.318Z,25.11
2018-09-09T10:12:36.073Z,25.17
2018-09-09T10:13:36.868Z,25.22
2018-09-09T10:14:36.079Z,25.26
2018-09-09T10:15:36.119Z,25.13
2018-09-09T10:16:36.345Z,25.16
2018-09-09T10:17:36.115Z,25.17
2018-09-09T10:18:36.121Z,25.16
2018-09-09T10:19:36.112Z,25.23
2018-09-09T10:20:36.127Z,25.38
2018-09-09T10:21:36.135Z,25.4
2018-09-09T10:22:36.377Z,25.59
2018-09-09T10:23:36.148Z,25.73
2018-09-09T10:24:36.136Z,25.68
2018-09-09T10:25:36.398Z,25.83
2018-09-09T10:26:36.408Z,25.65
2018-09-09T10:27:35.894Z,25.68
2018-09-09T10:28:35.893Z,25.68
2018-09-09T10:29:35.898Z,25.65
2018-09-09T10:30:36.422Z,25.68
2018-09-09T10:31:35.899Z,25.63
2018-09-09T10:32:36.190Z,25.65
2018-09-09T10:33:35.923Z,25.58
2018-09-09T10:34:36.221Z,25.44
2018-09-09T10:35:36.212Z,25.41
2018-09-09T10:36:36.189Z,25.5
2018-09-09T10:37:36.450Z,25.38
2018-09-09T10:38:39.928Z,25.32
2018-09-09T10:39:36.435Z,25.4
2018-09-09T10:40:36.273Z,25.33
2018-09-09T10:41:36.247Z,25.48
2018-09-09T10:42:36.223Z,25.38
2018-09-09T10:43:36.220Z,25.36
2018-09-09T10:44:36.218Z,25.38
2018-09-09T10:45:36.023Z,25.32
2018-09-09T10:46:36.016Z,25.31
2018-09-09T10:47:36.282Z,25.14
2018-09-09T10:48:35.979Z,25.14
2018-09-09T10:49:36.262Z,25.11
2018-09-09T10:50:36.249Z,25.11
2018-09-09T10:51:36.554Z,25.08
2018-09-09T10:52:36.271Z,25.06
2018-09-09T10:53:36.262Z,25.14
2018-09-09T10:54:36.514Z,25.23
2018-09-09T10:55:36.330Z,25.21
2018-09-09T10:56:36.260Z,25.21
2018-09-09T10:57:36.269Z,25.22
2018-09-09T10:58:36.298Z,25.29
2018-09-09T10:59:36.021Z,25.48
2018-09-09T11:00:36.549Z,25.48
2018-09-09T11:01:36.548Z,25.59
2018-09-09T11:02:36.299Z,25.69
2018-09-09T11:03:36.312Z,25.77
2018-09-09T11:04:36.564Z,25.84
2018-09-09T11:05:36.317Z,25.7
2018-09-09T11:06:36.305Z,25.7
2018-09-09T11:07:36.609Z,25.62
2018-09-09T11:08:36.582Z,25.62
2018-09-09T11:09:36.595Z,25.58
2018-09-09T11:10:36.348Z,25.58
2018-09-09T11:11:36.354Z,25.46
2018-09-09T11:12:36.843Z,25.41
2018-09-09T11:13:36.355Z,25.32
2018-09-09T11:14:36.093Z,25.38
2018-09-09T11:15:36.789Z,25.23
2018-09-09T11:16:36.607Z,25.22
2018-09-09T11:17:36.366Z,25.25
2018-09-09T11:18:36.621Z,25.25
2018-09-09T11:19:36.398Z,25.29
2018-09-09T11:20:36.655Z,25.33
2018-09-09T11:21:36.652Z,25.29
2018-09-09T11:22:36.392Z,25.38
2018-09-09T11:23:36.140Z,25.32
2018-09-09T11:24:36.961Z,25.41
2018-09-09T11:25:36.484Z,25.43
2018-09-09T11:26:36.654Z,25.4
2018-09-09T11:27:36.402Z,25.41
2018-09-09T11:28:36.413Z,25.44
2018-09-09T11:29:36.419Z,25.46
2018-09-09T11:30:36.680Z,25.46
2018-09-09T11:31:36.446Z,25.5
2018-09-09T11:32:36.685Z,25.41
2018-09-09T11:33:36.432Z,25.47
2018-09-09T11:34:36.704Z,25.41
2018-09-09T11:35:36.443Z,25.26
2018-09-09T11:36:36.710Z,25.33
2018-09-09T11:37:36.712Z,25.29
2018-09-09T11:38:36.468Z,25.4
2018-09-09T11:39:39.161Z,25.4
2018-09-09T11:40:36.758Z,25.38
2018-09-09T11:41:36.458Z,25.43
2018-09-09T11:42:36.221Z,25.51
2018-09-09T11:43:36.739Z,25.62
2018-09-09T11:44:36.508Z,25.66
2018-09-09T11:45:36.791Z,25.75
2018-09-09T11:46:36.480Z,25.77
2018-09-09T11:47:36.761Z,25.69
2018-09-09T11:48:36.493Z,25.72
2018-09-09T11:49:36.503Z,25.66
2018-09-09T11:50:36.774Z,25.44
2018-09-09T11:51:36.793Z,25.29
2018-09-09T11:52:36.767Z,25.16
2018-09-09T11:53:36.773Z,25.07
2018-09-09T11:54:36.796Z,25.07
2018-09-09T11:55:36.795Z,25.1
2018-09-09T11:56:36.533Z,25.14
2018-09-09T11:57:36.275Z,25.06
2018-09-09T11:58:36.275Z,25.03
2018-09-09T11:59:36.536Z,24.92
2018-09-09T12:00:36.573Z,24.91
2018-09-09T12:01:36.807Z,24.88
2018-09-09T12:02:36.800Z,24.99
2018-09-09T12:03:36.832Z,24.99
2018-09-09T12:04:36.812Z,24.96
2018-09-09T12:05:36.557Z,24.98
2018-09-09T12:06:36.824Z,25.03
2018-09-09T12:07:37.120Z,25.1
2018-09-09T12:08:36.868Z,25.11
2018-09-09T12:09:36.620Z,25.13
2018-09-09T12:10:36.902Z,25.1
2018-09-09T12:11:36.866Z,25.13
2018-09-09T12:12:36.590Z,25.22
2018-09-09T12:13:36.991Z,25.33
2018-09-09T12:14:36.597Z,25.38
2018-09-09T12:15:36.631Z,25.36
2018-09-09T12:16:36.860Z,25.51
2018-09-09T12:17:36.620Z,25.6
2018-09-09T12:18:36.874Z,25.62
2018-09-09T12:19:36.869Z,25.62
2018-09-09T12:20:36.367Z,25.63
2018-09-09T12:21:36.630Z,25.63
2018-09-09T12:22:36.897Z,25.69
2018-09-09T12:23:36.772Z,25.58
2018-09-09T12:24:36.635Z,25.6
2018-09-09T12:25:36.938Z,25.62
2018-09-09T12:26:36.408Z,25.46
2018-09-09T12:27:36.921Z,25.6
2018-09-09T12:28:36.907Z,25.59
2018-09-09T12:29:36.399Z,25.46
2018-09-09T12:30:37.002Z,25.4
2018-09-09T12:31:36.684Z,25.26
2018-09-09T12:32:37.248Z,25.11
2018-09-09T12:33:36.938Z,25.18
2018-09-09T12:34:36.932Z,25.29
2018-09-09T12:35:36.458Z,25.25
2018-09-09T12:36:36.923Z,25.26
2018-09-09T12:37:37.002Z,25.33
2018-09-09T12:38:36.944Z,25.43
2018-09-09T12:39:37.915Z,25.46
2018-09-09T12:40:36.968Z,25.46
2018-09-09T12:41:36.951Z,25.54
2018-09-09T12:42:36.966Z,25.54
2018-09-09T12:43:36.961Z,25.62
2018-09-09T12:44:36.958Z,25.66
2018-09-09T12:45:36.463Z,25.66
2018-09-09T12:46:36.718Z,25.77
2018-09-09T12:47:36.983Z,25.88
2018-09-09T12:48:36.711Z,25.81
2018-09-09T12:49:37.007Z,25.91
2018-09-09T12:50:36.749Z,25.95
2018-09-09T12:51:36.740Z,25.96
2018-09-09T12:52:36.746Z,25.96
2018-09-09T12:53:37.010Z,25.75
2018-09-09T12:54:37.028Z,25.7
2018-09-09T12:55:36.773Z,25.55
2018-09-09T12:56:37.022Z,25.5
2018-09-09T12:57:37.026Z,25.46